sensor_id;sensor_type;location;lat;lon;timestamp;pressure;altitude;pressure_sealevel;temperature;humidity
22047;BME280;11187;49.412;20.956;2023-07-28T00:00:32;94667.00;;;10.63;100.00
22047;BME280;11187;49.412;20.956;2023-07-28T00:03:26;94670.53;;;10.57;100.00
22047;BME280;11187;49.412;20.956;2023-07-28T00:05:59;94668.94;;;10.53;100.00
22047;BME280;11187;49.412;20.956;2023-07-28T00:08:46;94667.31;;;10.51;100.00
22047;BME280;11187;49.412;20.956;2023-07-28T00:11:19;94669.06;;;10.49;100.00
22047;BME280;11187;49.412;20.956;2023-07-28T00:14:06;94675.09;;;10.46;100.00
22047;BME280;11187;49.412;20.956;2023-07-28T00:16:39;94671.69;;;10.45;100.00
22047;BME280;11187;49.412;20.956;2023-07-28T00:19:26;94669.13;;;10.47;100.00
22047;BME280;11187;49.412;20.956;2023-07-28T00:21:59;94671.63;;;10.49;100.00
22047;BME280;11187;49.412;20.956;2023-07-28T00:24:46;94667.34;;;10.49;100.00
22047;BME280;11187;49.412;20.956;2023-07-28T00:27:20;94669.91;;;10.49;100.00
22047;BME280;11187;49.412;20.956;2023-07-28T00:30:06;94664.84;;;10.46;100.00
22047;BME280;11187;49.412;20.956;2023-07-28T00:32:39;94661.50;;;10.44;100.00
22047;BME280;11187;49.412;20.956;2023-07-28T00:35:26;94652.16;;;10.43;100.00
22047;BME280;11187;49.412;20.956;2023-07-28T00:38:00;94651.25;;;10.44;100.00
22047;BME280;11187;49.412;20.956;2023-07-28T00:40:46;94643.53;;;10.47;100.00
22047;BME280;11187;49.412;20.956;2023-07-28T00:43:19;94652.84;;;10.50;100.00
22047;BME280;11187;49.412;20.956;2023-07-28T00:46:06;94648.53;;;10.50;100.00
22047;BME280;11187;49.412;20.956;2023-07-28T00:48:40;94663.91;;;10.50;100.00
22047;BME280;11187;49.412;20.956;2023-07-28T00:51:27;94661.31;;;10.52;100.00
22047;BME280;11187;49.412;20.956;2023-07-28T00:54:01;94644.22;;;10.54;100.00
22047;BME280;11187;49.412;20.956;2023-07-28T00:56:55;94640.72;;;10.56;100.00
22047;BME280;11187;49.412;20.956;2023-07-28T00:59:29;94632.16;;;10.57;100.00
22047;BME280;11187;49.412;20.956;2023-07-28T01:02:22;94622.75;;;10.58;100.00
22047;BME280;11187;49.412;20.956;2023-07-28T01:04:56;94625.28;;;10.59;100.00
22047;BME280;11187;49.412;20.956;2023-07-28T01:07:52;94615.88;;;10.60;100.00
22047;BME280;11187;49.412;20.956;2023-07-28T01:10:47;94613.25;;;10.63;100.00
22047;BME280;11187;49.412;20.956;2023-07-28T01:13:21;94603.84;;;10.63;100.00
22047;BME280;11187;49.412;20.956;2023-07-28T01:16:08;94608.97;;;10.63;100.00
22047;BME280;11187;49.412;20.956;2023-07-28T01:18:42;94596.09;;;10.65;100.00
22047;BME280;11187;49.412;20.956;2023-07-28T01:21:36;94601.19;;;10.66;100.00
22047;BME280;11187;49.412;20.956;2023-07-28T01:24:21;94595.94;;;10.71;100.00
22047;BME280;11187;49.412;20.956;2023-07-28T01:27:12;94586.50;;;10.73;100.00
22047;BME280;11187;49.412;20.956;2023-07-28T01:29:46;94590.75;;;10.74;100.00
22047;BME280;11187;49.412;20.956;2023-07-28T01:32:39;94582.16;;;10.77;100.00
22047;BME280;11187;49.412;20.956;2023-07-28T01:35:13;94594.09;;;10.76;100.00
22047;BME280;11187;49.412;20.956;2023-07-28T01:38:06;94578.69;;;10.78;100.00
22047;BME280;11187;49.412;20.956;2023-07-28T01:40:39;94574.41;;;10.78;100.00
22047;BME280;11187;49.412;20.956;2023-07-28T01:43:33;94577.03;;;10.77;100.00
22047;BME280;11187;49.412;20.956;2023-07-28T01:46:07;94577.84;;;10.77;100.00
22047;BME280;11187;49.412;20.956;2023-07-28T01:48:53;94567.63;;;10.77;100.00
22047;BME280;11187;49.412;20.956;2023-07-28T01:51:27;94572.75;;;10.76;100.00
22047;BME280;11187;49.412;20.956;2023-07-28T01:54:13;94577.09;;;10.74;100.00
22047;BME280;11187;49.412;20.956;2023-07-28T01:56:46;94566.97;;;10.69;100.00
22047;BME280;11187;49.412;20.956;2023-07-28T01:59:33;94575.59;;;10.66;100.00
22047;BME280;11187;49.412;20.956;2023-07-28T02:02:06;94577.44;;;10.61;100.00
22047;BME280;11187;49.412;20.956;2023-07-28T02:04:53;94582.66;;;10.58;100.00
22047;BME280;11187;49.412;20.956;2023-07-28T02:07:26;94586.06;;;10.57;100.00
22047;BME280;11187;49.412;20.956;2023-07-28T02:10:13;94585.16;;;10.60;100.00
22047;BME280;11187;49.412;20.956;2023-07-28T02:12:46;94589.34;;;10.62;100.00
22047;BME280;11187;49.412;20.956;2023-07-28T02:15:33;94580.78;;;10.63;100.00
22047;BME280;11187;49.412;20.956;2023-07-28T02:18:07;94572.22;;;10.64;100.00
22047;BME280;11187;49.412;20.956;2023-07-28T02:20:49;94574.75;;;10.66;100.00
22047;BME280;11187;49.412;20.956;2023-07-28T02:23:29;94567.91;;;10.66;100.00
22047;BME280;11187;49.412;20.956;2023-07-28T02:26:03;94567.03;;;10.68;100.00
22047;BME280;11187;49.412;20.956;2023-07-28T02:28:56;94566.03;;;10.72;100.00
22047;BME280;11187;49.412;20.956;2023-07-28T02:31:50;94562.63;;;10.73;100.00
22047;BME280;11187;49.412;20.956;2023-07-28T02:34:44;94565.97;;;10.75;100.00
22047;BME280;11187;49.412;20.956;2023-07-28T02:37:18;94565.06;;;10.77;100.00
22047;BME280;11187;49.412;20.956;2023-07-28T02:40:05;94572.69;;;10.79;100.00
22047;BME280;11187;49.412;20.956;2023-07-28T02:42:39;94563.28;;;10.79;100.00
22047;BME280;11187;49.412;20.956;2023-07-28T02:45:26;94560.75;;;10.78;100.00
22047;BME280;11187;49.412;20.956;2023-07-28T02:48:00;94563.28;;;10.79;100.00
22047;BME280;11187;49.412;20.956;2023-07-28T02:50:53;94560.72;;;10.79;100.00
22047;BME280;11187;49.412;20.956;2023-07-28T02:53:47;94553.09;;;10.78;100.00
22047;BME280;11187;49.412;20.956;2023-07-28T02:56:41;94558.19;;;10.78;100.00
22047;BME280;11187;49.412;20.956;2023-07-28T02:59:15;94558.19;;;10.78;100.00
22047;BME280;11187;49.412;20.956;2023-07-28T03:02:01;94559.84;;;10.80;100.00
22047;BME280;11187;49.412;20.956;2023-07-28T03:04:35;94560.63;;;10.82;100.00
22047;BME280;11187;49.412;20.956;2023-07-28T03:07:21;94564.00;;;10.84;100.00
22047;BME280;11187;49.412;20.956;2023-07-28T03:09:55;94561.47;;;10.83;100.00
22047;BME280;11187;49.412;20.956;2023-07-28T03:12:41;94555.47;;;10.84;100.00
22047;BME280;11187;49.412;20.956;2023-07-28T03:15:15;94562.34;;;10.83;100.00
22047;BME280;11187;49.412;20.956;2023-07-28T03:18:04;94554.50;;;10.88;100.00
22047;BME280;11187;49.412;20.956;2023-07-28T03:20:37;94549.28;;;10.91;100.00
22047;BME280;11187;49.412;20.956;2023-07-28T03:23:24;94548.41;;;10.92;100.00
22047;BME280;11187;49.412;20.956;2023-07-28T03:25:58;94550.06;;;10.95;100.00
22047;BME280;11187;49.412;20.956;2023-07-28T03:28:44;94546.56;;;10.97;100.00
22047;BME280;11187;49.412;20.956;2023-07-28T03:31:41;94549.94;;;10.99;100.00
22047;BME280;11187;49.412;20.956;2023-07-28T03:34:15;94552.41;;;11.01;100.00
22047;BME280;11187;49.412;20.956;2023-07-28T03:37:01;94553.28;;;11.01;100.00
22047;BME280;11187;49.412;20.956;2023-07-28T03:39:36;94552.34;;;11.04;100.00
22047;BME280;11187;49.412;20.956;2023-07-28T03:42:22;94539.44;;;11.07;100.00
22047;BME280;11187;49.412;20.956;2023-07-28T03:44:56;94553.03;;;11.09;100.00
22047;BME280;11187;49.412;20.956;2023-07-28T03:47:42;94541.88;;;11.12;100.00
22047;BME280;11187;49.412;20.956;2023-07-28T03:50:16;94546.06;;;11.14;100.00
22047;BME280;11187;49.412;20.956;2023-07-28T03:53:04;94541.72;;;11.16;100.00
22047;BME280;11187;49.412;20.956;2023-07-28T03:55:41;94538.22;;;11.19;100.00
22047;BME280;11187;49.412;20.956;2023-07-28T03:58:29;94539.94;;;11.20;100.00
22047;BME280;11187;49.412;20.956;2023-07-28T04:01:03;94532.13;;;11.23;100.00
22047;BME280;11187;49.412;20.956;2023-07-28T04:03:49;94532.91;;;11.26;100.00
22047;BME280;11187;49.412;20.956;2023-07-28T04:06:42;94525.09;;;11.29;100.00
22047;BME280;11187;49.412;20.956;2023-07-28T04:09:35;94527.50;;;11.36;100.00
22047;BME280;11187;49.412;20.956;2023-07-28T04:12:09;94530.69;;;11.42;100.00
22047;BME280;11187;49.412;20.956;2023-07-28T04:15:02;94533.94;;;11.47;100.00
22047;BME280;11187;49.412;20.956;2023-07-28T04:17:56;94529.56;;;11.51;100.00
22047;BME280;11187;49.412;20.956;2023-07-28T04:20:30;94532.75;;;11.58;100.00
22047;BME280;11187;49.412;20.956;2023-07-28T04:23:16;94522.44;;;11.61;100.00
22047;BME280;11187;49.412;20.956;2023-07-28T04:25:50;94529.13;;;11.65;100.00
22047;BME280;11187;49.412;20.956;2023-07-28T04:28:36;94533.25;;;11.69;100.00
22047;BME280;11187;49.412;20.956;2023-07-28T04:31:30;94528.88;;;11.73;100.00
22047;BME280;11187;49.412;20.956;2023-07-28T04:34:27;94524.53;;;11.75;100.00
22047;BME280;11187;49.412;20.956;2023-07-28T04:37:21;94526.22;;;11.76;100.00
22047;BME280;11187;49.412;20.956;2023-07-28T04:39:55;94527.84;;;11.78;100.00
22047;BME280;11187;49.412;20.956;2023-07-28T04:42:41;94536.31;;;11.80;100.00
22047;BME280;11187;49.412;20.956;2023-07-28T04:45:15;94529.44;;;11.81;100.00
22047;BME280;11187;49.412;20.956;2023-07-28T04:48:02;94516.63;;;11.81;100.00
22047;BME280;11187;49.412;20.956;2023-07-28T04:50:37;94520.00;;;11.83;100.00
22047;BME280;11187;49.412;20.956;2023-07-28T04:53:24;94523.31;;;11.86;100.00
22047;BME280;11187;49.412;20.956;2023-07-28T04:55:58;94515.50;;;11.91;100.00
22047;BME280;11187;49.412;20.956;2023-07-28T04:58:51;94506.81;;;11.95;100.00
22047;BME280;11187;49.412;20.956;2023-07-28T05:01:45;94502.34;;;12.00;100.00
22047;BME280;11187;49.412;20.956;2023-07-28T05:04:19;94502.16;;;12.06;100.00
22047;BME280;11187;49.412;20.956;2023-07-28T05:07:05;94494.22;;;12.12;100.00
22047;BME280;11187;49.412;20.956;2023-07-28T05:09:39;94494.03;;;12.19;100.00
22047;BME280;11187;49.412;20.956;2023-07-28T05:12:25;94487.91;;;12.23;100.00
22047;BME280;11187;49.412;20.956;2023-07-28T05:14:59;94487.69;;;12.29;100.00
22047;BME280;11187;49.412;20.956;2023-07-28T05:17:52;94480.66;;;12.34;100.00
22047;BME280;11187;49.412;20.956;2023-07-28T05:20:46;94480.44;;;12.40;100.00
22047;BME280;11187;49.412;20.956;2023-07-28T05:23:40;94481.16;;;12.44;100.00
22047;BME280;11187;49.412;20.956;2023-07-28T05:26:34;94480.16;;;12.48;100.00
22047;BME280;11187;49.412;20.956;2023-07-28T05:29:08;94479.16;;;12.52;100.00
22047;BME280;11187;49.412;20.956;2023-07-28T05:32:01;94473.03;;;12.56;100.00
22047;BME280;11187;49.412;20.956;2023-07-28T05:34:35;94469.44;;;12.60;100.00
22047;BME280;11187;49.412;20.956;2023-07-28T05:37:28;94479.53;;;12.65;100.00
22047;BME280;11187;49.412;20.956;2023-07-28T05:40:22;94467.31;;;12.71;100.00
22047;BME280;11187;49.412;20.956;2023-07-28T05:43:16;94470.56;;;12.77;100.00
22047;BME280;11187;49.412;20.956;2023-07-28T05:45:50;94464.34;;;12.82;100.00
22047;BME280;11187;49.412;20.956;2023-07-28T05:48:36;94459.94;;;12.86;100.00
22047;BME280;11187;49.412;20.956;2023-07-28T05:51:10;94458.03;;;12.91;100.00
22047;BME280;11187;49.412;20.956;2023-07-28T05:54:03;94458.69;;;12.96;100.00
22047;BME280;11187;49.412;20.956;2023-07-28T05:56:57;94456.84;;;13.00;100.00
22047;BME280;11187;49.412;20.956;2023-07-28T05:59:31;94454.94;;;13.05;100.00
22047;BME280;11187;49.412;20.956;2023-07-28T06:02:24;94472.75;;;13.09;100.00
22047;BME280;11187;49.412;20.956;2023-07-28T06:05:18;94467.44;;;13.14;100.00
22047;BME280;11187;49.412;20.956;2023-07-28T06:08:12;94480.06;;;13.20;100.00
22047;BME280;11187;49.412;20.956;2023-07-28T06:10:47;94470.41;;;13.25;100.00
22047;BME280;11187;49.412;20.956;2023-07-28T06:13:33;94476.25;;;13.30;100.00
22047;BME280;11187;49.412;20.956;2023-07-28T06:16:07;94476.13;;;13.33;100.00
22047;BME280;11187;49.412;20.956;2023-07-28T06:18:53;94484.56;;;13.37;100.00
22047;BME280;11187;49.412;20.956;2023-07-28T06:21:27;94481.88;;;13.40;100.00
22047;BME280;11187;49.412;20.956;2023-07-28T06:24:13;94483.41;;;13.44;100.00
22047;BME280;11187;49.412;20.956;2023-07-28T06:26:47;94489.41;;;13.45;100.00
22047;BME280;11187;49.412;20.956;2023-07-28T06:29:40;94479.00;;;13.48;100.00
22047;BME280;11187;49.412;20.956;2023-07-28T06:32:34;94478.94;;;13.49;100.00
22047;BME280;11187;49.412;20.956;2023-07-28T06:35:08;94483.16;;;13.50;100.00
22047;BME280;11187;49.412;20.956;2023-07-28T06:37:55;94485.69;;;13.52;100.00
22047;BME280;11187;49.412;20.956;2023-07-28T06:40:29;94483.13;;;13.52;100.00
22047;BME280;11187;49.412;20.956;2023-07-28T06:43:22;94489.03;;;13.54;100.00
22047;BME280;11187;49.412;20.956;2023-07-28T06:46:16;94483.81;;;13.55;100.00
22047;BME280;11187;49.412;20.956;2023-07-28T06:48:50;94488.97;;;13.55;100.00
22047;BME280;11187;49.412;20.956;2023-07-28T06:51:45;94485.50;;;13.56;100.00
22047;BME280;11187;49.412;20.956;2023-07-28T06:54:39;94484.59;;;13.57;100.00
22047;BME280;11187;49.412;20.956;2023-07-28T06:57:13;94485.47;;;13.58;100.00
22047;BME280;11187;49.412;20.956;2023-07-28T06:59:59;94484.53;;;13.59;100.00
22047;BME280;11187;49.412;20.956;2023-07-28T07:02:33;94481.91;;;13.61;100.00
22047;BME280;11187;49.412;20.956;2023-07-28T07:05:19;94477.56;;;13.63;100.00
22047;BME280;11187;49.412;20.956;2023-07-28T07:07:53;94476.66;;;13.64;100.00
22047;BME280;11187;49.412;20.956;2023-07-28T07:10:50;94480.88;;;13.65;100.00
22047;BME280;11187;49.412;20.956;2023-07-28T07:13:24;94483.34;;;13.68;100.00
22047;BME280;11187;49.412;20.956;2023-07-28T07:16:15;94490.16;;;13.69;100.00
22047;BME280;11187;49.412;20.956;2023-07-28T07:18:53;94483.22;;;13.71;100.00
22047;BME280;11187;49.412;20.956;2023-07-28T07:21:41;94490.03;;;13.72;100.00
22047;BME280;11187;49.412;20.956;2023-07-28T07:24:15;94489.91;;;13.75;100.00
22047;BME280;11187;49.412;20.956;2023-07-28T07:27:01;94488.06;;;13.78;100.00
22047;BME280;11187;49.412;20.956;2023-07-28T07:29:35;94493.84;;;13.84;100.00
22047;BME280;11187;49.412;20.956;2023-07-28T07:32:21;94496.22;;;13.88;100.00
22047;BME280;11187;49.412;20.956;2023-07-28T07:34:56;94496.91;;;13.92;100.00
22047;BME280;11187;49.412;20.956;2023-07-28T07:37:49;94494.25;;;13.95;100.00
22047;BME280;11187;49.412;20.956;2023-07-28T07:40:24;94497.44;;;14.00;100.00
22047;BME280;11187;49.412;20.956;2023-07-28T07:43:10;94507.59;;;14.03;100.00
22047;BME280;11187;49.412;20.956;2023-07-28T07:45:44;94504.00;;;14.07;100.00
22047;BME280;11187;49.412;20.956;2023-07-28T07:48:35;94500.56;;;14.08;100.00
22047;BME280;11187;49.412;20.956;2023-07-28T07:51:10;94493.53;;;14.12;100.00
22047;BME280;11187;49.412;20.956;2023-07-28T07:53:57;94490.84;;;14.15;100.00
22047;BME280;11187;49.412;20.956;2023-07-28T07:56:31;94501.88;;;14.17;100.00
22047;BME280;11187;49.412;20.956;2023-07-28T07:59:17;94504.28;;;14.22;100.00
22047;BME280;11187;49.412;20.956;2023-07-28T08:01:51;94496.38;;;14.26;100.00
22047;BME280;11187;49.412;20.956;2023-07-28T08:04:39;94503.94;;;14.29;100.00
22047;BME280;11187;49.412;20.956;2023-07-28T08:07:13;94503.81;;;14.32;100.00
22047;BME280;11187;49.412;20.956;2023-07-28T08:09:59;94500.34;;;14.33;100.00
22047;BME280;11187;49.412;20.956;2023-07-28T08:12:33;94500.16;;;14.38;100.00
22047;BME280;11187;49.412;20.956;2023-07-28T08:15:21;94503.34;;;14.43;100.00
22047;BME280;11187;49.412;20.956;2023-07-28T08:17:55;94513.41;;;14.49;100.00
22047;BME280;11187;49.412;20.956;2023-07-28T08:20:41;94502.91;;;14.54;100.00
22047;BME280;11187;49.412;20.956;2023-07-28T08:23:15;94506.06;;;14.60;100.00
22047;BME280;11187;49.412;20.956;2023-07-28T08:26:01;94503.22;;;14.67;100.00
22047;BME280;11187;49.412;20.956;2023-07-28T08:28:35;94510.69;;;14.73;100.00
22047;BME280;11187;49.412;20.956;2023-07-28T08:31:21;94494.94;;;14.79;100.00
22047;BME280;11187;49.412;20.956;2023-07-28T08:33:55;94504.91;;;14.87;100.00
22047;BME280;11187;49.412;20.956;2023-07-28T08:36:48;94510.56;;;14.95;100.00
22047;BME280;11187;49.412;20.956;2023-07-28T08:39:42;94499.91;;;15.02;100.00
22047;BME280;11187;49.412;20.956;2023-07-28T08:42:20;94492.72;;;15.09;100.00
22047;BME280;11187;49.412;20.956;2023-07-28T08:45:08;94505.34;;;15.15;100.00
22047;BME280;11187;49.412;20.956;2023-07-28T08:47:41;94497.22;;;15.23;100.00
22047;BME280;11187;49.412;20.956;2023-07-28T08:50:28;94500.53;;;15.27;100.00
22047;BME280;11187;49.412;20.956;2023-07-28T08:53:02;94500.97;;;15.35;100.00
22047;BME280;11187;49.412;20.956;2023-07-28T08:55:48;94503.97;;;15.44;100.00
22047;BME280;11187;49.412;20.956;2023-07-28T08:58:22;94498.44;;;15.52;100.00
22047;BME280;11187;49.412;20.956;2023-07-28T09:01:10;94493.78;;;15.60;100.00
22047;BME280;11187;49.412;20.956;2023-07-28T09:03:44;94497.63;;;15.69;100.00
22047;BME280;11187;49.412;20.956;2023-07-28T09:06:38;94499.06;;;15.76;100.00
22047;BME280;11187;49.412;20.956;2023-07-28T09:09:34;94502.03;;;15.86;100.00
22047;BME280;11187;49.412;20.956;2023-07-28T09:12:08;94496.47;;;15.94;100.00
22047;BME280;11187;49.412;20.956;2023-07-28T09:14:57;94498.69;;;16.01;100.00
22047;BME280;11187;49.412;20.956;2023-07-28T09:17:31;94497.47;;;16.08;100.00
22047;BME280;11187;49.412;20.956;2023-07-28T09:20:18;94495.50;;;16.14;100.00
22047;BME280;11187;49.412;20.956;2023-07-28T09:22:52;94481.50;;;16.18;100.00
22047;BME280;11187;49.412;20.956;2023-07-28T09:25:39;94483.88;;;16.22;100.00
22047;BME280;11187;49.412;20.956;2023-07-28T09:28:13;94485.47;;;16.25;100.00
22047;BME280;11187;49.412;20.956;2023-07-28T09:31:09;94483.69;;;16.25;100.00
22047;BME280;11187;49.412;20.956;2023-07-28T09:34:07;94481.88;;;16.27;100.00
22047;BME280;11187;49.412;20.956;2023-07-28T09:36:41;94480.88;;;16.30;100.00
22047;BME280;11187;49.412;20.956;2023-07-28T09:39:28;94485.81;;;16.35;100.00
22047;BME280;11187;49.412;20.956;2023-07-28T09:42:05;94482.22;;;16.37;100.00
22047;BME280;11187;49.412;20.956;2023-07-28T09:44:53;94471.75;;;16.40;100.00
22047;BME280;11187;49.412;20.956;2023-07-28T09:47:29;94477.69;;;16.42;100.00
22047;BME280;11187;49.412;20.956;2023-07-28T09:50:18;94479.34;;;16.43;100.00
22047;BME280;11187;49.412;20.956;2023-07-28T09:52:58;94477.69;;;16.42;100.00
22047;BME280;11187;49.412;20.956;2023-07-28T09:55:55;94479.50;;;16.40;100.00
22047;BME280;11187;49.412;20.956;2023-07-28T09:58:31;94469.13;;;16.42;100.00
22047;BME280;11187;49.412;20.956;2023-07-28T10:01:28;94480.28;;;16.42;100.00
22047;BME280;11187;49.412;20.956;2023-07-28T10:04:23;94467.34;;;16.42;100.00
22047;BME280;11187;49.412;20.956;2023-07-28T10:07:17;94472.41;;;16.44;100.00
22047;BME280;11187;49.412;20.956;2023-07-28T10:09:51;94459.59;;;16.42;100.00
22047;BME280;11187;49.412;20.956;2023-07-28T10:12:47;94466.28;;;16.46;100.00
22047;BME280;11187;49.412;20.956;2023-07-28T10:15:27;94451.44;;;16.50;100.00
22047;BME280;11187;49.412;20.956;2023-07-28T10:18:14;94461.59;;;16.53;100.00
22047;BME280;11187;49.412;20.956;2023-07-28T10:20:48;94463.94;;;16.58;100.00
22047;BME280;11187;49.412;20.956;2023-07-28T10:23:35;94470.75;;;16.60;100.00
22047;BME280;11187;49.412;20.956;2023-07-28T10:26:11;94473.97;;;16.64;100.00
22047;BME280;11187;49.412;20.956;2023-07-28T10:29:08;94481.50;;;16.68;100.00
22047;BME280;11187;49.412;20.956;2023-07-28T10:32:03;94485.59;;;16.73;100.00
22047;BME280;11187;49.412;20.956;2023-07-28T10:34:36;94481.94;;;16.77;100.00
22047;BME280;11187;49.412;20.956;2023-07-28T10:37:23;94484.53;;;16.77;100.00
22047;BME280;11187;49.412;20.956;2023-07-28T10:40:26;94481.88;;;16.78;100.00
22047;BME280;11187;49.412;20.956;2023-07-28T10:43:16;94480.09;;;16.79;100.00
22047;BME280;11187;49.412;20.956;2023-07-28T10:45:50;94481.78;;;16.80;100.00
22047;BME280;11187;49.412;20.956;2023-07-28T10:48:41;94491.34;;;16.78;100.00
22047;BME280;11187;49.412;20.956;2023-07-28T10:51:25;94487.03;;;16.78;100.00
22047;BME280;11187;49.412;20.956;2023-07-28T10:54:20;94487.88;;;16.79;100.00
22047;BME280;11187;49.412;20.956;2023-07-28T10:56:54;94492.06;;;16.81;100.00
22047;BME280;11187;49.412;20.956;2023-07-28T10:59:40;94498.81;;;16.84;100.00
22047;BME280;11187;49.412;20.956;2023-07-28T11:02:14;94496.06;;;16.87;100.00
22047;BME280;11187;49.412;20.956;2023-07-28T11:05:29;94496.81;;;16.89;100.00
22047;BME280;11187;49.412;20.956;2023-07-28T11:08:24;94494.16;;;16.90;100.00
22047;BME280;11187;49.412;20.956;2023-07-28T11:10:58;94491.56;;;16.90;100.00
22047;BME280;11187;49.412;20.956;2023-07-28T11:13:44;94497.75;;;16.88;100.00
22047;BME280;11187;49.412;20.956;2023-07-28T11:16:18;94503.81;;;16.87;100.00
22047;BME280;11187;49.412;20.956;2023-07-28T11:19:12;94497.06;;;16.84;100.00
22047;BME280;11187;49.412;20.956;2023-07-28T11:21:46;94493.72;;;16.82;100.00
22047;BME280;11187;49.412;20.956;2023-07-28T11:24:39;94500.78;;;16.79;100.00
22047;BME280;11187;49.412;20.956;2023-07-28T11:27:34;94493.09;;;16.77;100.00
22047;BME280;11187;49.412;20.956;2023-07-28T11:30:10;94484.66;;;16.74;100.00
22047;BME280;11187;49.412;20.956;2023-07-28T11:33:08;94481.41;;;16.70;100.00
22047;BME280;11187;49.412;20.956;2023-07-28T11:35:44;94501.34;;;16.68;100.00
22047;BME280;11187;49.412;20.956;2023-07-28T11:38:37;94482.50;;;16.66;100.00
22047;BME280;11187;49.412;20.956;2023-07-28T11:41:11;94473.91;;;16.65;100.00
22047;BME280;11187;49.412;20.956;2023-07-28T11:44:05;94474.72;;;16.66;100.00
22047;BME280;11187;49.412;20.956;2023-07-28T11:46:59;94474.72;;;16.66;100.00
22047;BME280;11187;49.412;20.956;2023-07-28T11:49:53;94484.19;;;16.67;100.00
22047;BME280;11187;49.412;20.956;2023-07-28T11:52:31;94470.41;;;16.66;100.00
22047;BME280;11187;49.412;20.956;2023-07-28T11:55:26;94472.97;;;16.66;100.00
22047;BME280;11187;49.412;20.956;2023-07-28T11:58:00;94471.16;;;16.68;100.00
22047;BME280;11187;49.412;20.956;2023-07-28T12:00:47;94477.25;;;16.67;100.00
22047;BME280;11187;49.412;20.956;2023-07-28T12:03:29;94483.31;;;16.66;100.00
22047;BME280;11187;49.412;20.956;2023-07-28T12:06:23;94491.06;;;16.66;100.00
22047;BME280;11187;49.412;20.956;2023-07-28T12:12:47;94491.31;;;16.62;100.00
22047;BME280;11187;49.412;20.956;2023-07-28T12:15:44;94488.72;;;16.62;100.00
22047;BME280;11187;49.412;20.956;2023-07-28T12:18:21;94508.50;;;16.63;100.00
22047;BME280;11187;49.412;20.956;2023-07-28T12:21:10;94500.00;;;16.61;100.00
22047;BME280;11187;49.412;20.956;2023-07-28T12:23:44;94516.31;;;16.61;100.00
22047;BME280;11187;49.412;20.956;2023-07-28T12:26:33;94506.97;;;16.59;100.00
22047;BME280;11187;49.412;20.956;2023-07-28T12:29:07;94503.56;;;16.58;100.00
22047;BME280;11187;49.412;20.956;2023-07-28T12:31:54;94518.22;;;16.58;100.00
22047;BME280;11187;49.412;20.956;2023-07-28T12:34:29;94514.81;;;16.57;100.00
22047;BME280;11187;49.412;20.956;2023-07-28T12:37:25;94527.81;;;16.56;100.00
22047;BME280;11187;49.412;20.956;2023-07-28T12:40:22;94526.13;;;16.55;100.00
22047;BME280;11187;49.412;20.956;2023-07-28T12:43:01;94530.56;;;16.53;100.00
22047;BME280;11187;49.412;20.956;2023-07-28T12:45:58;94540.06;;;16.52;100.00
22047;BME280;11187;49.412;20.956;2023-07-28T12:48:52;94519.56;;;16.49;100.00
22047;BME280;11187;49.412;20.956;2023-07-28T12:51:26;94524.78;;;16.47;100.00
22047;BME280;11187;49.412;20.956;2023-07-28T12:54:12;94523.97;;;16.47;100.00
22047;BME280;11187;49.412;20.956;2023-07-28T12:56:46;94526.63;;;16.45;100.00
22047;BME280;11187;49.412;20.956;2023-07-28T12:59:50;94542.19;;;16.44;100.00
22047;BME280;11187;49.412;20.956;2023-07-28T13:02:27;94545.69;;;16.43;100.00
22047;BME280;11187;49.412;20.956;2023-07-28T13:05:17;94552.63;;;16.42;100.00
22047;BME280;11187;49.412;20.956;2023-07-28T13:07:51;94550.84;;;16.43;100.00
22047;BME280;11187;49.412;20.956;2023-07-28T13:10:40;94550.09;;;16.41;100.00
22047;BME280;11187;49.412;20.956;2023-07-28T13:13:17;94557.03;;;16.40;100.00
22047;BME280;11187;49.412;20.956;2023-07-28T13:16:04;94555.34;;;16.39;100.00
22047;BME280;11187;49.412;20.956;2023-07-28T13:18:39;94553.66;;;16.38;100.00
22047;BME280;11187;49.412;20.956;2023-07-28T13:21:25;94553.66;;;16.38;100.00
22047;BME280;11187;49.412;20.956;2023-07-28T13:23:59;94564.06;;;16.37;100.00
22047;BME280;11187;49.412;20.956;2023-07-28T13:26:46;94565.00;;;16.36;100.00
22047;BME280;11187;49.412;20.956;2023-07-28T13:29:20;94557.25;;;16.36;100.00
22047;BME280;11187;49.412;20.956;2023-07-28T13:32:18;94553.91;;;16.34;100.00
22047;BME280;11187;49.412;20.956;2023-07-28T13:34:52;94559.84;;;16.36;100.00
22047;BME280;11187;49.412;20.956;2023-07-28T13:37:38;94554.50;;;16.39;100.00
22047;BME280;11187;49.412;20.956;2023-07-28T13:40:12;94564.69;;;16.42;100.00
22047;BME280;11187;49.412;20.956;2023-07-28T13:42:58;94558.53;;;16.44;100.00
22047;BME280;11187;49.412;20.956;2023-07-28T13:45:33;94566.97;;;16.48;100.00
22047;BME280;11187;49.412;20.956;2023-07-28T13:48:19;94566.06;;;16.49;100.00
22047;BME280;11187;49.412;20.956;2023-07-28T13:50:53;94557.31;;;16.52;100.00
22047;BME280;11187;49.412;20.956;2023-07-28T13:53:39;94562.50;;;16.52;100.00
22047;BME280;11187;49.412;20.956;2023-07-28T13:56:33;94563.31;;;16.52;100.00
22047;BME280;11187;49.412;20.956;2023-07-28T13:59:40;94565.84;;;16.54;100.00
22047;BME280;11187;49.412;20.956;2023-07-28T14:02:13;94557.16;;;16.55;100.00
22047;BME280;11187;49.412;20.956;2023-07-28T14:04:59;94547.63;;;16.55;100.00
22047;BME280;11187;49.412;20.956;2023-07-28T14:07:33;94545.75;;;16.59;100.00